createdAt,value
2023-04-23T00:07:09.653Z,38.4
2023-04-23T00:13:01.574Z,38.4
2023-04-23T00:18:53.258Z,38.4
2023-04-23T00:24:43.990Z,38.4
2023-04-23T00:30:35.372Z,38.3
2023-04-23T00:36:26.842Z,38.3
2023-04-23T00:42:02.264Z,38.3
2023-04-23T00:47:54.698Z,38.3
2023-04-23T00:53:46.460Z,38.2
2023-04-23T00:59:37.052Z,38.2
2023-04-23T01:05:29.938Z,38.1
2023-04-23T01:11:20.993Z,38.1
2023-04-23T01:17:12.449Z,38.1
2023-04-23T01:22:48.286Z,38
2023-04-23T01:28:39.647Z,38
2023-04-23T01:34:31.608Z,37.9
2023-04-23T01:40:23.033Z,37.9
2023-04-23T01:46:14.536Z,37.9
2023-04-23T01:52:08.848Z,37.9
2023-04-23T01:57:59.320Z,37.8
2023-04-23T02:03:36.320Z,37.8
2023-04-23T02:09:28.616Z,37.8
2023-04-23T02:15:20.141Z,37.7
2023-04-23T02:21:12.599Z,37.7
2023-04-23T02:27:04.497Z,37.7
2023-04-23T02:32:56.163Z,37.6
2023-04-23T02:38:47.689Z,37.6
2023-04-23T02:44:39.089Z,37.6
2023-04-23T02:50:30.675Z,37.6
2023-04-23T02:56:21.941Z,37.5
2023-04-23T03:02:14.226Z,37.4
2023-04-23T03:08:07.050Z,37.4
2023-04-23T03:13:43.130Z,37.4
2023-04-23T03:19:35.145Z,37.4
2023-04-23T03:25:26.113Z,37.3
2023-04-23T03:31:19.204Z,37.3
2023-04-23T03:37:11.233Z,37.3
2023-04-23T03:43:02.542Z,37.3
2023-04-23T03:48:38.716Z,37.2
2023-04-23T03:54:15.134Z,37.2
2023-04-23T03:59:50.818Z,37.1
2023-04-23T04:05:45.445Z,37.1
2023-04-23T04:11:37.200Z,37.1
2023-04-23T04:17:28.704Z,37.1
2023-04-23T04:23:21.675Z,37
2023-04-23T04:29:12.894Z,37
2023-04-23T04:35:04.594Z,37
2023-04-23T04:40:56.297Z,36.9
2023-04-23T04:46:48.111Z,36.9
2023-04-23T04:52:40.017Z,36.9
2023-04-23T04:58:30.915Z,36.9
2023-04-23T05:04:08.395Z,36.8
2023-04-23T05:10:01.721Z,36.8
2023-04-23T05:15:53.487Z,36.8
2023-04-23T05:21:45.330Z,36.8
2023-04-23T05:27:37.183Z,36.7
2023-04-23T05:33:33.295Z,36.7
2023-04-23T05:39:26.731Z,36.6
2023-04-23T05:45:19.892Z,36.6
2023-04-23T05:51:12.528Z,36.6
2023-04-23T05:57:05.672Z,36.6
2023-04-23T06:02:58.206Z,36.6
2023-04-23T06:08:40.173Z,36.5
2023-04-23T06:14:32.973Z,36.4
2023-04-23T06:20:24.870Z,36.4
2023-04-23T06:26:15.748Z,38.8
2023-04-23T06:32:08.046Z,38.8
2023-04-23T06:38:10.350Z,38.4
2023-04-23T06:44:01.963Z,38.3
2023-04-23T06:49:54.013Z,40.3
2023-04-23T06:55:46.170Z,44.8
2023-04-23T07:01:39.346Z,46.6
2023-04-23T07:07:32.062Z,47.7
2023-04-23T07:13:23.105Z,48.4
2023-04-23T07:19:15.130Z,49.3
2023-04-23T07:25:06.260Z,49.9
2023-04-23T07:30:57.073Z,50.7
2023-04-23T07:36:49.382Z,51.3
2023-04-23T07:42:42.910Z,52
2023-04-23T07:48:35.228Z,52.8
2023-04-23T07:54:11.900Z,53.5
2023-04-23T08:00:05.786Z,54.3
2023-04-23T08:06:00.984Z,54.9
2023-04-23T08:11:52.325Z,55.8
2023-04-23T08:17:44.605Z,56.6
2023-04-23T08:23:51.100Z,57.4
2023-04-23T08:29:28.082Z,55.9
2023-04-23T08:35:35.746Z,58.1
2023-04-23T08:41:23.418Z,59.2
2023-04-23T08:47:00.463Z,60.1
2023-04-23T08:52:36.114Z,60.3
2023-04-23T08:58:12.671Z,61.1
2023-04-23T09:04:05.233Z,61.8
2023-04-23T09:09:43.112Z,62.6
2023-04-23T09:15:36.376Z,63.3
2023-04-23T09:21:11.807Z,59.6
2023-04-23T09:27:03.439Z,61.6
2023-04-23T09:32:39.933Z,63.5
2023-04-23T09:38:31.698Z,64.5
2023-04-23T09:44:08.161Z,64.9
2023-04-23T09:49:45.066Z,65
2023-04-23T09:55:37.404Z,62.6
2023-04-23T10:01:52.579Z,61.1
2023-04-23T10:08:45.465Z,61.2
2023-04-23T10:15:23.254Z,61.3
2023-04-23T10:21:20.404Z,61.2
2023-04-23T10:27:52.587Z,61.1
2023-04-23T10:34:15.646Z,61
2023-04-23T10:40:23.777Z,61.1
2023-04-23T10:46:25.950Z,61.2
2023-04-23T10:58:38.670Z,61.1
2023-04-23T11:04:34.645Z,61
2023-04-23T11:10:33.941Z,61
2023-04-23T11:16:27.721Z,60.6
2023-04-23T11:22:06.292Z,60.4
2023-04-23T11:27:57.294Z,60.3
2023-04-23T11:33:59.015Z,60.2
2023-04-23T11:39:50.715Z,60
2023-04-23T11:45:26.948Z,60
2023-04-23T11:50:33.899Z,60
2023-04-23T11:56:25.713Z,59.8
2023-04-23T12:02:18.579Z,59.6
2023-04-23T12:08:21.298Z,59.7
2023-04-23T12:13:56.652Z,59.5
2023-04-23T12:19:50.476Z,59.3
2023-04-23T12:25:42.136Z,59.2
2023-04-23T12:31:34.389Z,57
2023-04-23T12:37:26.527Z,55.4
2023-04-23T12:43:17.278Z,53.5
2023-04-23T12:49:09.824Z,50.6
2023-04-23T12:55:01.498Z,48.9
2023-04-23T13:00:53.345Z,47.8
2023-04-23T13:06:48.019Z,46.9
2023-04-23T13:12:24.278Z,46.3
2023-04-23T13:18:16.497Z,45.8
2023-04-23T13:24:10.978Z,45.4
2023-04-23T13:30:02.465Z,45
2023-04-23T13:35:23.477Z,44.8
2023-04-23T13:41:16.630Z,44.6
2023-04-23T13:47:21.455Z,44.3
2023-04-23T13:53:29.458Z,44.1
2023-04-23T13:59:17.899Z,43.9
2023-04-23T14:05:11.977Z,43.8
2023-04-23T14:10:49.125Z,43.6
2023-04-23T14:16:25.202Z,43.4
2023-04-23T14:22:05.573Z,43.2
2023-04-23T14:28:11.409Z,43
2023-04-23T14:34:03.494Z,42.8
2023-04-23T14:40:10.264Z,42.6
2023-04-23T14:46:13.570Z,42.4
2023-04-23T14:51:49.869Z,42.2
2023-04-23T14:57:41.481Z,42.1
2023-04-23T15:03:36.140Z,41.9
2023-04-23T15:09:28.221Z,41.8
2023-04-23T15:15:21.103Z,41.7
2023-04-23T15:21:23.331Z,41.6
2023-04-23T15:27:15.236Z,41.5
2023-04-23T15:32:52.098Z,41.4
2023-04-23T15:38:44.863Z,41.4
2023-04-23T15:44:36.171Z,41.3
2023-04-23T15:50:27.999Z,41.2
2023-04-23T15:56:20.236Z,41.1
2023-04-23T16:02:15.156Z,41.1
2023-04-23T16:08:24.187Z,40.9
2023-04-23T16:14:16.478Z,40.9
2023-04-23T16:20:09.430Z,40.8
2023-04-23T16:26:01.325Z,40.8
2023-04-23T16:32:13.476Z,40.7
2023-04-23T16:38:05.419Z,40.6
2023-04-23T16:43:56.895Z,40.5
2023-04-23T16:49:50.375Z,40.4
2023-04-23T16:55:43.434Z,40.4
2023-04-23T17:01:36.516Z,40.4
2023-04-23T17:07:31.395Z,40.3
2023-04-23T17:13:24.713Z,40.3
2023-04-23T17:19:02.447Z,40.2
2023-04-23T17:24:39.486Z,40.1
2023-04-23T17:30:32.599Z,40.1
2023-04-23T17:36:33.035Z,40.1
2023-04-23T17:42:26.048Z,40
2023-04-23T17:48:21.405Z,40
2023-04-23T17:54:18.059Z,39.9
2023-04-23T17:59:58.474Z,39.8
2023-04-23T18:05:56.268Z,39.7
2023-04-23T18:11:35.389Z,39.6
2023-04-23T18:17:13.487Z,39.6
2023-04-23T18:22:53.275Z,39.6
2023-04-23T18:28:15.835Z,39.6
2023-04-23T18:34:06.372Z,39.5
2023-04-23T18:40:38.465Z,39.4
2023-04-23T18:46:16.780Z,37.8
2023-04-23T18:51:55.323Z,36.4
2023-04-23T18:57:36.519Z,35.8
2023-04-23T19:03:56.763Z,34.8
2023-04-23T19:09:50.356Z,33.9
2023-04-23T19:15:12.920Z,33.3
2023-04-23T19:21:06.620Z,32.9
2023-04-23T19:26:44.792Z,32.6
2023-04-23T19:32:38.116Z,32.3
2023-04-23T19:38:16.017Z,32.1
2023-04-23T19:43:54.264Z,31.9
2023-04-23T19:49:32.553Z,31.4
2023-04-23T19:55:12.294Z,30.9
2023-04-23T20:01:05.625Z,30.3
2023-04-23T20:06:44.509Z,29.7
2023-04-23T20:12:21.610Z,29.3
2023-04-23T20:18:01.809Z,29
2023-04-23T20:23:24.629Z,28.7
2023-04-23T20:29:02.206Z,28.5
2023-04-23T20:34:39.227Z,28.3
2023-04-23T20:40:16.491Z,28.1
2023-04-23T20:46:07.593Z,28
2023-04-23T20:51:43.708Z,27.9
2023-04-23T20:57:19.818Z,27.9
2023-04-23T21:03:12.202Z,27.8
2023-04-23T21:09:05.109Z,27.7
2023-04-23T21:14:56.779Z,27.6
2023-04-23T21:20:49.036Z,27.5
2023-04-23T21:26:39.687Z,27.4
2023-04-23T21:32:34.176Z,27.3
2023-04-23T21:38:10.376Z,27.3
2023-04-23T21:44:01.656Z,27.2
2023-04-23T21:49:54.169Z,27.1
2023-04-23T21:55:45.843Z,27.1
2023-04-23T22:01:54.316Z,27
2023-04-23T22:08:05.910Z,26.9
2023-04-23T22:14:11.844Z,26.9
2023-04-23T22:20:16.733Z,26.9
2023-04-23T22:26:07.322Z,26.9
2023-04-23T22:31:42.936Z,26.8
2023-04-23T22:37:35.233Z,26.8
2023-04-23T22:43:28.397Z,26.8
2023-04-23T22:48:49.094Z,26.8
2023-04-23T22:54:26.870Z,26.7
2023-04-23T22:59:47.373Z,26.7
2023-04-23T23:05:24.417Z,26.6
2023-04-23T23:11:00.156Z,26.6
2023-04-23T23:22:27.576Z,26.6
2023-04-23T23:28:18.648Z,26.6
2023-04-23T23:34:10.130Z,26.6
2023-04-23T23:40:01.454Z,26.5
2023-04-23T23:45:55.654Z,26.5
2023-04-23T23:51:32.346Z,26.4
2023-04-23T23:57:08.506Z,26.4
